sensor_id;sensor_type;location;lat;lon;timestamp;pressure;altitude;pressure_sealevel;temperature;humidity
70015;BME280;57358;51.094;6.760;2023-04-09T00:01:28;102060.13;;;6.52;100.00
70015;BME280;57358;51.094;6.760;2023-04-09T00:03:55;102054.06;;;6.50;100.00
70015;BME280;57358;51.094;6.760;2023-04-09T00:06:21;102039.47;;;6.33;100.00
70015;BME280;57358;51.094;6.760;2023-04-09T00:08:48;102013.47;;;6.30;100.00
70015;BME280;57358;51.094;6.760;2023-04-09T00:11:14;101999.00;;;6.08;100.00
70015;BME280;57358;51.094;6.760;2023-04-09T00:13:41;102050.66;;;6.43;100.00
70015;BME280;57358;51.094;6.760;2023-04-09T00:16:07;102051.56;;;6.42;100.00
70015;BME280;57358;51.094;6.760;2023-04-09T00:18:34;101961.81;;;5.89;100.00
70015;BME280;57358;51.094;6.760;2023-04-09T00:21:00;102041.22;;;6.33;100.00
70015;BME280;57358;51.094;6.760;2023-04-09T00:23:27;102020.53;;;6.21;100.00
70015;BME280;57358;51.094;6.760;2023-04-09T00:25:53;102054.34;;;6.27;100.00
70015;BME280;57358;51.094;6.760;2023-04-09T00:28:20;101999.16;;;5.89;100.00
70015;BME280;57358;51.094;6.760;2023-04-09T00:30:46;101997.59;;;5.76;100.00
70015;BME280;57358;51.094;6.760;2023-04-09T00:33:13;102015.69;;;5.85;100.00
70015;BME280;57358;51.094;6.760;2023-04-09T00:35:39;102032.13;;;5.96;100.00
70015;BME280;57358;51.094;6.760;2023-04-09T00:38:06;101978.66;;;5.62;100.00
70015;BME280;57358;51.094;6.760;2023-04-09T00:40:32;102042.56;;;5.95;100.00
70015;BME280;57358;51.094;6.760;2023-04-09T00:42:59;102043.44;;;5.89;100.00
70015;BME280;57358;51.094;6.760;2023-04-09T00:45:26;102042.66;;;5.86;100.00
70015;BME280;57358;51.094;6.760;2023-04-09T00:47:52;102031.47;;;5.76;100.00
70015;BME280;57358;51.094;6.760;2023-04-09T00:50:20;102043.69;;;5.69;100.00
70015;BME280;57358;51.094;6.760;2023-04-09T00:52:46;102010.03;;;5.49;100.00
70015;BME280;57358;51.094;6.760;2023-04-09T00:55:13;102039.41;;;5.62;100.00
70015;BME280;57358;51.094;6.760;2023-04-09T00:57:40;102033.34;;;5.60;100.00
70015;BME280;57358;51.094;6.760;2023-04-09T01:00:06;102023.00;;;5.52;100.00
70015;BME280;57358;51.094;6.760;2023-04-09T01:02:33;102032.56;;;5.50;100.00
70015;BME280;57358;51.094;6.760;2023-04-09T01:05:00;101960.13;;;5.01;100.00
70015;BME280;57358;51.094;6.760;2023-04-09T01:10:11;101974.88;;;5.05;100.00
70015;BME280;57358;51.094;6.760;2023-04-09T01:15:28;101933.50;;;4.76;100.00
70015;BME280;57358;51.094;6.760;2023-04-09T01:18:21;102023.25;;;5.26;100.00
70015;BME280;57358;51.094;6.760;2023-04-09T01:20:59;101809.38;;;3.88;100.00
70015;BME280;57358;51.094;6.760;2023-04-09T01:26:10;101905.16;;;4.40;100.00
70015;BME280;57358;51.094;6.760;2023-04-09T01:28:44;101984.66;;;4.74;100.00
70015;BME280;57358;51.094;6.760;2023-04-09T01:31:13;102008.91;;;4.74;100.00
70015;BME280;57358;51.094;6.760;2023-04-09T01:33:40;102026.16;;;4.85;100.00
70015;BME280;57358;51.094;6.760;2023-04-09T01:36:08;101951.94;;;4.40;100.00
70015;BME280;57358;51.094;6.760;2023-04-09T01:38:36;102001.19;;;4.59;100.00
70015;BME280;57358;51.094;6.760;2023-04-09T01:41:05;101972.72;;;4.40;100.00
70015;BME280;57358;51.094;6.760;2023-04-09T01:43:33;102030.56;;;4.78;100.00
70015;BME280;57358;51.094;6.760;2023-04-09T01:46:01;102019.25;;;4.80;100.00
70015;BME280;57358;51.094;6.760;2023-04-09T01:48:29;102028.81;;;4.82;100.00
70015;BME280;57358;51.094;6.760;2023-04-09T01:50:57;102027.06;;;4.85;100.00
70015;BME280;57358;51.094;6.760;2023-04-09T01:53:24;102015.81;;;4.78;100.00
70015;BME280;57358;51.094;6.760;2023-04-09T01:55:54;102020.97;;;4.86;100.00
70015;BME280;57358;51.094;6.760;2023-04-09T01:58:24;101961.44;;;4.49;100.00
70015;BME280;57358;51.094;6.760;2023-04-09T02:00:59;102036.53;;;4.92;100.00
70015;BME280;57358;51.094;6.760;2023-04-09T02:03:34;102010.56;;;4.85;100.00
70015;BME280;57358;51.094;6.760;2023-04-09T02:06:15;102008.00;;;4.83;100.00
70015;BME280;57358;51.094;6.760;2023-04-09T02:08:45;102031.22;;;5.06;100.00
70015;BME280;57358;51.094;6.760;2023-04-09T02:11:14;102030.38;;;5.06;100.00
70015;BME280;57358;51.094;6.760;2023-04-09T02:13:41;102018.22;;;5.05;100.00
70015;BME280;57358;51.094;6.760;2023-04-09T02:16:10;101963.00;;;4.70;100.00
70015;BME280;57358;51.094;6.760;2023-04-09T02:18:38;102025.16;;;5.07;100.00
70015;BME280;57358;51.094;6.760;2023-04-09T02:21:04;102026.88;;;5.11;100.00
70015;BME280;57358;51.094;6.760;2023-04-09T02:23:31;101944.00;;;4.59;100.00
70015;BME280;57358;51.094;6.760;2023-04-09T02:25:58;102019.06;;;5.07;100.00
70015;BME280;57358;51.094;6.760;2023-04-09T02:28:25;102010.50;;;4.95;100.00
70015;BME280;57358;51.094;6.760;2023-04-09T02:30:51;102019.13;;;4.99;100.00
70015;BME280;57358;51.094;6.760;2023-04-09T02:33:18;102014.00;;;4.91;100.00
70015;BME280;57358;51.094;6.760;2023-04-09T02:35:44;102010.56;;;4.85;100.00
70015;BME280;57358;51.094;6.760;2023-04-09T02:38:11;102035.75;;;4.79;100.00
70015;BME280;57358;51.094;6.760;2023-04-09T02:40:41;102005.47;;;4.72;100.00
70015;BME280;57358;51.094;6.760;2023-04-09T02:43:08;101917.50;;;4.09;100.00
70015;BME280;57358;51.094;6.760;2023-04-09T02:45:35;101973.63;;;4.38;100.00
70015;BME280;57358;51.094;6.760;2023-04-09T02:48:01;102005.63;;;4.46;100.00
70015;BME280;57358;51.094;6.760;2023-04-09T02:50:27;102006.53;;;4.39;100.00
70015;BME280;57358;51.094;6.760;2023-04-09T02:52:54;101903.78;;;3.81;100.00
70015;BME280;57358;51.094;6.760;2023-04-09T02:55:21;101999.63;;;4.30;100.00
70015;BME280;57358;51.094;6.760;2023-04-09T02:57:47;101971.16;;;4.09;100.00
70015;BME280;57358;51.094;6.760;2023-04-09T03:00:14;101945.31;;;3.87;100.00
70015;BME280;57358;51.094;6.760;2023-04-09T03:02:40;101998.84;;;4.13;100.00
70015;BME280;57358;51.094;6.760;2023-04-09T03:05:07;101922.00;;;3.66;100.00
70015;BME280;57358;51.094;6.760;2023-04-09T03:07:34;101947.09;;;3.70;100.00
70015;BME280;57358;51.094;6.760;2023-04-09T03:10:00;101913.41;;;3.48;100.00
70015;BME280;57358;51.094;6.760;2023-04-09T03:12:27;101971.28;;;3.79;100.00
70015;BME280;57358;51.094;6.760;2023-04-09T03:14:53;101985.13;;;3.80;100.00
70015;BME280;57358;51.094;6.760;2023-04-09T03:17:19;101977.38;;;3.74;100.00
70015;BME280;57358;51.094;6.760;2023-04-09T03:19:46;101928.16;;;3.38;100.00
70015;BME280;57358;51.094;6.760;2023-04-09T03:22:12;101989.50;;;3.69;100.00
70015;BME280;57358;51.094;6.760;2023-04-09T03:24:39;101984.31;;;3.66;100.00
70015;BME280;57358;51.094;6.760;2023-04-09T03:27:05;101979.16;;;3.59;100.00
70015;BME280;57358;51.094;6.760;2023-04-09T03:29:32;101981.75;;;3.61;100.00
70015;BME280;57358;51.094;6.760;2023-04-09T03:31:58;101982.63;;;3.57;100.00
70015;BME280;57358;51.094;6.760;2023-04-09T03:34:24;101980.91;;;3.53;100.00
70015;BME280;57358;51.094;6.760;2023-04-09T03:36:51;101980.03;;;3.49;100.00
70015;BME280;57358;51.094;6.760;2023-04-09T03:39:17;101977.47;;;3.43;100.00
70015;BME280;57358;51.094;6.760;2023-04-09T03:41:43;101974.00;;;3.41;100.00
70015;BME280;57358;51.094;6.760;2023-04-09T03:44:10;101971.41;;;3.36;100.00
70015;BME280;57358;51.094;6.760;2023-04-09T03:46:36;101670.13;;;1.61;100.00
70015;BME280;57358;51.094;6.760;2023-04-09T03:49:03;101967.97;;;3.33;100.00
70015;BME280;57358;51.094;6.760;2023-04-09T03:51:29;101971.44;;;3.29;100.00
70015;BME280;57358;51.094;6.760;2023-04-09T03:53:56;101990.44;;;3.29;100.00
70015;BME280;57358;51.094;6.760;2023-04-09T03:56:23;101877.25;;;2.70;100.00
70015;BME280;57358;51.094;6.760;2023-04-09T03:58:49;101976.59;;;3.23;100.00
70015;BME280;57358;51.094;6.760;2023-04-09T04:01:16;101970.56;;;3.14;100.00
70015;BME280;57358;51.094;6.760;2023-04-09T04:03:42;101968.00;;;3.11;100.00
70015;BME280;57358;51.094;6.760;2023-04-09T04:06:09;101976.63;;;3.13;100.00
70015;BME280;57358;51.094;6.760;2023-04-09T04:08:35;101887.66;;;2.53;100.00
70015;BME280;57358;51.094;6.760;2023-04-09T04:11:03;101971.44;;;2.99;100.00
70015;BME280;57358;51.094;6.760;2023-04-09T04:13:30;101980.09;;;2.97;100.00
70015;BME280;57358;51.094;6.760;2023-04-09T04:15:56;101879.84;;;2.34;100.00
70015;BME280;57358;51.094;6.760;2023-04-09T04:18:23;101981.81;;;2.92;100.00
70015;BME280;57358;51.094;6.760;2023-04-09T04:20:49;101952.44;;;2.76;100.00
70015;BME280;57358;51.094;6.760;2023-04-09T04:23:16;101974.91;;;2.86;100.00
70015;BME280;57358;51.094;6.760;2023-04-09T04:25:42;101975.78;;;2.85;100.00
70015;BME280;57358;51.094;6.760;2023-04-09T04:28:09;101948.13;;;2.63;100.00
70015;BME280;57358;51.094;6.760;2023-04-09T04:30:35;101990.44;;;2.78;100.00
70015;BME280;57358;51.094;6.760;2023-04-09T04:33:02;101894.50;;;2.23;100.00
70015;BME280;57358;51.094;6.760;2023-04-09T04:35:28;101974.91;;;2.77;100.00
70015;BME280;57358;51.094;6.760;2023-04-09T04:37:54;101983.53;;;2.74;100.00
70015;BME280;57358;51.094;6.760;2023-04-09T04:40:21;101986.97;;;2.76;100.00
70015;BME280;57358;51.094;6.760;2023-04-09T04:42:47;101957.59;;;2.59;100.00
70015;BME280;57358;51.094;6.760;2023-04-09T04:45:14;101987.84;;;2.72;100.00
70015;BME280;57358;51.094;6.760;2023-04-09T04:47:40;101988.72;;;2.73;100.00
70015;BME280;57358;51.094;6.760;2023-04-09T04:50:07;101988.69;;;2.68;100.00
70015;BME280;57358;51.094;6.760;2023-04-09T04:52:35;101992.19;;;2.69;100.00
70015;BME280;57358;51.094;6.760;2023-04-09T04:55:01;101991.31;;;2.67;100.00
70015;BME280;57358;51.094;6.760;2023-04-09T04:57:28;101995.63;;;2.63;100.00
70015;BME280;57358;51.094;6.760;2023-04-09T04:59:54;101992.19;;;2.63;100.00
70015;BME280;57358;51.094;6.760;2023-04-09T05:02:20;101996.47;;;2.64;100.00
70015;BME280;57358;51.094;6.760;2023-04-09T05:04:47;101906.56;;;2.10;100.00
70015;BME280;57358;51.094;6.760;2023-04-09T05:07:14;101954.97;;;2.40;100.00
70015;BME280;57358;51.094;6.760;2023-04-09T05:09:40;101897.09;;;2.11;100.00
70015;BME280;57358;51.094;6.760;2023-04-09T05:12:10;102002.53;;;2.70;100.00
70015;BME280;57358;51.094;6.760;2023-04-09T05:14:37;101961.88;;;2.46;100.00
70015;BME280;57358;51.094;6.760;2023-04-09T05:17:03;102006.88;;;2.73;100.00
70015;BME280;57358;51.094;6.760;2023-04-09T05:19:32;102000.81;;;2.75;100.00
70015;BME280;57358;51.094;6.760;2023-04-09T05:21:58;101993.91;;;2.71;100.00
70015;BME280;57358;51.094;6.760;2023-04-09T05:24:25;102000.81;;;2.78;100.00
70015;BME280;57358;51.094;6.760;2023-04-09T05:26:51;102009.47;;;2.84;100.00
70015;BME280;57358;51.094;6.760;2023-04-09T05:29:18;102007.75;;;2.92;100.00
70015;BME280;57358;51.094;6.760;2023-04-09T05:31:44;102001.69;;;3.00;100.00
70015;BME280;57358;51.094;6.760;2023-04-09T05:34:10;102006.88;;;3.08;100.00
70015;BME280;57358;51.094;6.760;2023-04-09T05:36:37;102008.63;;;3.17;100.00
70015;BME280;57358;51.094;6.760;2023-04-09T05:39:03;101998.22;;;3.20;100.00
70015;BME280;57358;51.094;6.760;2023-04-09T05:41:30;102001.69;;;3.34;100.00
70015;BME280;57358;51.094;6.760;2023-04-09T05:43:57;101880.69;;;2.70;100.00
70015;BME280;57358;51.094;6.760;2023-04-09T05:46:28;102004.25;;;3.57;100.00
70015;BME280;57358;51.094;6.760;2023-04-09T05:48:55;102008.53;;;3.71;100.00
70015;BME280;57358;51.094;6.760;2023-04-09T05:51:21;102005.03;;;3.83;100.00
70015;BME280;57358;51.094;6.760;2023-04-09T05:53:48;102007.59;;;3.93;100.00
70015;BME280;57358;51.094;6.760;2023-04-09T05:56:15;102002.41;;;3.95;100.00
70015;BME280;57358;51.094;6.760;2023-04-09T05:58:41;101978.19;;;3.91;100.00
70015;BME280;57358;51.094;6.760;2023-04-09T06:01:08;101967.78;;;3.91;100.00
70015;BME280;57358;51.094;6.760;2023-04-09T06:03:35;102007.50;;;4.21;100.00
70015;BME280;57358;51.094;6.760;2023-04-09T06:06:02;101973.78;;;4.06;100.00
70015;BME280;57358;51.094;6.760;2023-04-09T06:08:28;102004.81;;;4.36;100.00
70015;BME280;57358;51.094;6.760;2023-04-09T06:10:55;102006.50;;;4.45;100.00
70015;BME280;57358;51.094;6.760;2023-04-09T06:13:21;102007.28;;;4.56;100.00
70015;BME280;57358;51.094;6.760;2023-04-09T06:15:47;102008.94;;;4.68;100.00
70015;BME280;57358;51.094;6.760;2023-04-09T06:18:14;102007.13;;;4.83;100.00
70015;BME280;57358;51.094;6.760;2023-04-09T06:20:40;102005.31;;;4.91;100.00
70015;BME280;57358;51.094;6.760;2023-04-09T06:23:07;101938.78;;;4.60;100.00
70015;BME280;57358;51.094;6.760;2023-04-09T06:25:34;101899.84;;;4.53;100.00
70015;BME280;57358;51.094;6.760;2023-04-09T06:28:01;101959.28;;;5.02;100.00
70015;BME280;57358;51.094;6.760;2023-04-09T06:30:28;102014.34;;;5.53;100.00
70015;BME280;57358;51.094;6.760;2023-04-09T06:32:56;102018.53;;;5.65;100.00
70015;BME280;57358;51.094;6.760;2023-04-09T06:35:22;101952.78;;;5.46;100.00
70015;BME280;57358;51.094;6.760;2023-04-09T06:37:48;101956.00;;;5.67;100.00
70015;BME280;57358;51.094;6.760;2023-04-09T06:40:15;102002.47;;;6.05;100.00
70015;BME280;57358;51.094;6.760;2023-04-09T06:42:41;102016.22;;;6.18;100.00
70015;BME280;57358;51.094;6.760;2023-04-09T06:45:10;102014.22;;;6.40;100.00
70015;BME280;57358;51.094;6.760;2023-04-09T06:47:37;101989.00;;;6.39;100.00
70015;BME280;57358;51.094;6.760;2023-04-09T06:50:04;101967.31;;;6.37;100.00
70015;BME280;57358;51.094;6.760;2023-04-09T06:52:30;102005.81;;;6.80;100.00
70015;BME280;57358;51.094;6.760;2023-04-09T06:54:57;102006.44;;;6.96;100.00
70015;BME280;57358;51.094;6.760;2023-04-09T06:57:24;101803.72;;;5.92;100.00
70015;BME280;57358;51.094;6.760;2023-04-09T06:59:51;102000.66;;;7.30;100.00
70015;BME280;57358;51.094;6.760;2023-04-09T07:02:17;101924.63;;;6.97;100.00
70015;BME280;57358;51.094;6.760;2023-04-09T07:04:44;101990.44;;;7.63;100.00
70015;BME280;57358;51.094;6.760;2023-04-09T07:07:11;101977.97;;;7.77;100.00
70015;BME280;57358;51.094;6.760;2023-04-09T07:09:37;101952.53;;;7.85;100.00
70015;BME280;57358;51.094;6.760;2023-04-09T07:12:04;101942.59;;;8.04;100.00
70015;BME280;57358;51.094;6.760;2023-04-09T07:14:30;101947.53;;;8.16;100.00
70015;BME280;57358;51.094;6.760;2023-04-09T07:16:57;101937.50;;;8.35;100.00
70015;BME280;57358;51.094;6.760;2023-04-09T07:19:23;101863.84;;;8.18;100.00
70015;BME280;57358;51.094;6.760;2023-04-09T07:21:50;101882.41;;;8.45;98.43
70015;BME280;57358;51.094;6.760;2023-04-09T07:24:16;101877.66;;;8.61;95.98
70015;BME280;57358;51.094;6.760;2023-04-09T07:26:43;101858.25;;;8.68;92.73
70015;BME280;57358;51.094;6.760;2023-04-09T07:29:09;101813.25;;;8.55;92.95
70015;BME280;57358;51.094;6.760;2023-04-09T07:31:35;101836.63;;;8.94;88.96
70015;BME280;57358;51.094;6.760;2023-04-09T07:34:02;101810.22;;;9.03;86.26
70015;BME280;57358;51.094;6.760;2023-04-09T07:36:29;101788.13;;;9.12;84.16
70015;BME280;57358;51.094;6.760;2023-04-09T07:38:57;101759.09;;;9.19;82.15
70015;BME280;57358;51.094;6.760;2023-04-09T07:41:23;101733.94;;;9.14;82.27
70015;BME280;57358;51.094;6.760;2023-04-09T07:43:49;101755.84;;;9.41;81.35
70015;BME280;57358;51.094;6.760;2023-04-09T07:46:19;101720.66;;;9.50;78.96
70015;BME280;57358;51.094;6.760;2023-04-09T07:48:46;101697.03;;;9.51;77.91
70015;BME280;57358;51.094;6.760;2023-04-09T07:51:15;101727.63;;;9.77;79.25
70015;BME280;57358;51.094;6.760;2023-04-09T07:53:41;101729.94;;;9.88;78.49
70015;BME280;57358;51.094;6.760;2023-04-09T07:56:08;101733.19;;;9.95;78.62
70015;BME280;57358;51.094;6.760;2023-04-09T07:58:35;101710.03;;;10.08;77.81
70015;BME280;57358;51.094;6.760;2023-04-09T08:01:03;101701.69;;;10.22;76.79
70015;BME280;57358;51.094;6.760;2023-04-09T08:03:30;101655.44;;;10.19;74.79
70015;BME280;57358;51.094;6.760;2023-04-09T08:05:56;101580.75;;;9.81;74.30
70015;BME280;57358;51.094;6.760;2023-04-09T08:08:23;101638.28;;;10.35;73.58
70015;BME280;57358;51.094;6.760;2023-04-09T08:10:50;101637.94;;;10.45;73.72
70015;BME280;57358;51.094;6.760;2023-04-09T08:13:16;101628.81;;;10.55;72.94
70015;BME280;57358;51.094;6.760;2023-04-09T08:15:43;101618.28;;;10.56;72.61
70015;BME280;57358;51.094;6.760;2023-04-09T08:18:09;101620.31;;;10.72;73.02
70015;BME280;57358;51.094;6.760;2023-04-09T08:20:36;101597.00;;;10.86;71.51
70015;BME280;57358;51.094;6.760;2023-04-09T08:23:03;101583.63;;;10.92;70.66
70015;BME280;57358;51.094;6.760;2023-04-09T08:25:29;101587.78;;;10.98;71.06
70015;BME280;57358;51.094;6.760;2023-04-09T08:27:56;101571.41;;;11.13;70.21
70015;BME280;57358;51.094;6.760;2023-04-09T08:30:23;101528.25;;;10.98;69.13
70015;BME280;57358;51.094;6.760;2023-04-09T08:32:49;101532.75;;;11.17;68.61
70015;BME280;57358;51.094;6.760;2023-04-09T08:35:16;101530.50;;;11.28;67.98
70015;BME280;57358;51.094;6.760;2023-04-09T08:37:42;101502.00;;;11.40;67.32
70015;BME280;57358;51.094;6.760;2023-04-09T08:40:09;101471.47;;;11.37;66.83
70015;BME280;57358;51.094;6.760;2023-04-09T08:42:42;101479.13;;;11.62;65.50
70015;BME280;57358;51.094;6.760;2023-04-09T08:45:11;101449.22;;;11.65;65.90
70015;BME280;57358;51.094;6.760;2023-04-09T08:47:40;101426.25;;;11.68;64.74
70015;BME280;57358;51.094;6.760;2023-04-09T08:50:08;101436.31;;;11.79;63.84
70015;BME280;57358;51.094;6.760;2023-04-09T08:52:35;101373.41;;;11.55;63.96
70015;BME280;57358;51.094;6.760;2023-04-09T08:55:02;101431.50;;;12.08;64.03
70015;BME280;57358;51.094;6.760;2023-04-09T08:57:28;101383.00;;;12.13;62.71
70015;BME280;57358;51.094;6.760;2023-04-09T08:59:55;101370.06;;;12.45;60.75
70015;BME280;57358;51.094;6.760;2023-04-09T09:02:22;101289.53;;;12.24;59.54
70015;BME280;57358;51.094;6.760;2023-04-09T09:04:49;101255.34;;;12.41;57.75
70015;BME280;57358;51.094;6.760;2023-04-09T09:07:16;101289.16;;;12.49;58.99
70015;BME280;57358;51.094;6.760;2023-04-09T09:09:54;101283.16;;;12.63;58.05
70015;BME280;57358;51.094;6.760;2023-04-09T09:14:58;101267.75;;;12.72;57.47
70015;BME280;57358;51.094;6.760;2023-04-09T09:17:24;101195.81;;;12.72;56.15
70015;BME280;57358;51.094;6.760;2023-04-09T09:19:51;101276.97;;;12.81;58.33
70015;BME280;57358;51.094;6.760;2023-04-09T09:22:18;101176.63;;;12.86;56.25
70015;BME280;57358;51.094;6.760;2023-04-09T09:24:48;101197.75;;;13.17;55.95
70015;BME280;57358;51.094;6.760;2023-04-09T09:27:36;101066.00;;;12.86;54.09
70015;BME280;57358;51.094;6.760;2023-04-09T09:30:06;101094.97;;;13.17;53.27
70015;BME280;57358;51.094;6.760;2023-04-09T09:32:34;101077.63;;;13.29;52.75
70015;BME280;57358;51.094;6.760;2023-04-09T09:35:03;101082.47;;;13.37;52.70
70015;BME280;57358;51.094;6.760;2023-04-09T09:37:31;101101.88;;;13.50;53.64
70015;BME280;57358;51.094;6.760;2023-04-09T09:39:58;101004.22;;;13.22;52.19
70015;BME280;57358;51.094;6.760;2023-04-09T09:42:25;101009.88;;;13.46;50.97
70015;BME280;57358;51.094;6.760;2023-04-09T09:44:58;101055.19;;;13.52;51.77
70015;BME280;57358;51.094;6.760;2023-04-09T09:47:28;100986.56;;;13.68;49.67
70015;BME280;57358;51.094;6.760;2023-04-09T09:50:04;101001.69;;;13.50;51.36
70015;BME280;57358;51.094;6.760;2023-04-09T09:52:31;100912.66;;;13.25;50.34
70015;BME280;57358;51.094;6.760;2023-04-09T09:55:00;100939.53;;;13.61;49.63
70015;BME280;57358;51.094;6.760;2023-04-09T09:57:38;100909.69;;;13.60;48.89
70015;BME280;57358;51.094;6.760;2023-04-09T10:00:10;100863.81;;;13.20;49.37
70015;BME280;57358;51.094;6.760;2023-04-09T10:02:52;100882.56;;;13.44;48.94
70015;BME280;57358;51.094;6.760;2023-04-09T10:05:22;100836.69;;;13.61;47.60
70015;BME280;57358;51.094;6.760;2023-04-09T10:07:54;100912.59;;;13.84;48.49
70015;BME280;57358;51.094;6.760;2023-04-09T10:10:23;100922.88;;;14.03;47.98
70015;BME280;57358;51.094;6.760;2023-04-09T10:12:51;100911.56;;;14.28;47.60
70015;BME280;57358;51.094;6.760;2023-04-09T10:15:18;100942.72;;;14.50;46.52
70015;BME280;57358;51.094;6.760;2023-04-09T10:17:45;100950.34;;;14.55;46.82
70015;BME280;57358;51.094;6.760;2023-04-09T10:20:16;100939.78;;;14.69;46.25
70015;BME280;57358;51.094;6.760;2023-04-09T10:22:46;100995.88;;;14.73;47.61
70015;BME280;57358;51.094;6.760;2023-04-09T10:25:15;101002.22;;;14.70;47.83
70015;BME280;57358;51.094;6.760;2023-04-09T10:27:42;101009.25;;;14.84;46.85
70015;BME280;57358;51.094;6.760;2023-04-09T10:30:33;101059.91;;;15.18;47.25
70015;BME280;57358;51.094;6.760;2023-04-09T10:33:12;101000.50;;;15.24;46.04
70015;BME280;57358;51.094;6.760;2023-04-09T10:35:39;100996.72;;;15.01;46.55
70015;BME280;57358;51.094;6.760;2023-04-09T10:38:09;100957.06;;;15.01;44.76
70015;BME280;57358;51.094;6.760;2023-04-09T10:40:40;100998.13;;;15.06;45.46
70015;BME280;57358;51.094;6.760;2023-04-09T10:43:08;100908.03;;;14.42;45.80
70015;BME280;57358;51.094;6.760;2023-04-09T10:45:40;100984.69;;;14.69;45.97
70015;BME280;57358;51.094;6.760;2023-04-09T10:48:13;101025.28;;;15.08;45.41
70015;BME280;57358;51.094;6.760;2023-04-09T10:50:43;100997.44;;;14.90;45.58
70015;BME280;57358;51.094;6.760;2023-04-09T10:53:25;101024.66;;;15.05;45.81
70015;BME280;57358;51.094;6.760;2023-04-09T10:55:52;101042.31;;;15.04;45.61
70015;BME280;57358;51.094;6.760;2023-04-09T10:58:19;101106.03;;;15.54;45.34
70015;BME280;57358;51.094;6.760;2023-04-09T11:00:47;101086.63;;;15.41;45.04
70015;BME280;57358;51.094;6.760;2023-04-09T11:03:26;101073.56;;;15.25;45.64
70015;BME280;57358;51.094;6.760;2023-04-09T11:05:54;101048.03;;;15.11;44.74
70015;BME280;57358;51.094;6.760;2023-04-09T11:08:22;100986.44;;;14.42;45.44
70015;BME280;57358;51.094;6.760;2023-04-09T11:10:52;101151.25;;;14.95;46.89
70015;BME280;57358;51.094;6.760;2023-04-09T11:13:24;101142.31;;;15.25;45.14
70015;BME280;57358;51.094;6.760;2023-04-09T11:15:50;101086.78;;;15.25;44.42
70015;BME280;57358;51.094;6.760;2023-04-09T11:18:22;101067.44;;;14.97;44.05
70015;BME280;57358;51.094;6.760;2023-04-09T11:20:49;101072.44;;;14.60;45.95
70015;BME280;57358;51.094;6.760;2023-04-09T11:23:16;101130.84;;;15.11;45.15
70015;BME280;57358;51.094;6.760;2023-04-09T11:25:47;101203.16;;;15.79;45.06
70015;BME280;57358;51.094;6.760;2023-04-09T11:28:14;101195.69;;;15.99;44.54
70015;BME280;57358;51.094;6.760;2023-04-09T11:30:41;101163.19;;;15.84;45.00
70015;BME280;57358;51.094;6.760;2023-04-09T11:33:09;101112.16;;;15.27;44.46
70015;BME280;57358;51.094;6.760;2023-04-09T11:35:35;101103.31;;;14.87;45.34
70015;BME280;57358;51.094;6.760;2023-04-09T11:38:09;101118.38;;;14.72;45.82
70015;BME280;57358;51.094;6.760;2023-04-09T11:40:39;101177.41;;;15.00;46.06
70015;BME280;57358;51.094;6.760;2023-04-09T11:43:13;101275.94;;;15.86;46.46
70015;BME280;57358;51.094;6.760;2023-04-09T11:45:42;101313.75;;;16.68;44.91
70015;BME280;57358;51.094;6.760;2023-04-09T11:48:09;101293.59;;;16.79;44.60
70015;BME280;57358;51.094;6.760;2023-04-09T11:50:36;101285.53;;;17.06;43.62
70015;BME280;57358;51.094;6.760;2023-04-09T11:53:17;101056.03;;;15.77;42.84
70015;BME280;57358;51.094;6.760;2023-04-09T11:55:46;101159.91;;;15.93;43.79
70015;BME280;57358;51.094;6.760;2023-04-09T11:58:13;101157.03;;;15.29;45.00
70015;BME280;57358;51.094;6.760;2023-04-09T12:00:40;101170.34;;;14.86;46.37
70015;BME280;57358;51.094;6.760;2023-04-09T12:03:06;101021.22;;;13.76;46.10
70015;BME280;57358;51.094;6.760;2023-04-09T12:05:36;101124.56;;;14.13;47.63
70015;BME280;57358;51.094;6.760;2023-04-09T12:08:06;101292.69;;;15.72;45.97
70015;BME280;57358;51.094;6.760;2023-04-09T12:10:36;101211.84;;;15.54;44.72
70015;BME280;57358;51.094;6.760;2023-04-09T12:13:07;101268.91;;;16.00;44.72
70015;BME280;57358;51.094;6.760;2023-04-09T12:15:37;101285.00;;;16.09;44.94
70015;BME280;57358;51.094;6.760;2023-04-09T12:18:07;101221.41;;;15.84;44.80
70015;BME280;57358;51.094;6.760;2023-04-09T12:20:36;101203.50;;;15.87;44.51
70015;BME280;57358;51.094;6.760;2023-04-09T12:23:06;101306.91;;;16.39;44.58
70015;BME280;57358;51.094;6.760;2023-04-09T12:25:34;101199.81;;;15.90;43.91
70015;BME280;57358;51.094;6.760;2023-04-09T12:28:05;101279.53;;;16.25;44.15
70015;BME280;57358;51.094;6.760;2023-04-09T12:30:33;101264.47;;;16.13;44.39
70015;BME280;57358;51.094;6.760;2023-04-09T12:33:00;101242.44;;;16.25;43.52
70015;BME280;57358;51.094;6.760;2023-04-09T12:35:26;101299.75;;;16.66;43.72
70015;BME280;57358;51.094;6.760;2023-04-09T12:37:53;101228.72;;;16.59;42.22
70015;BME280;57358;51.094;6.760;2023-04-09T12:40:20;101274.31;;;16.77;42.59
70015;BME280;57358;51.094;6.760;2023-04-09T12:42:47;101239.31;;;16.46;42.43
70015;BME280;57358;51.094;6.760;2023-04-09T12:45:15;101269.66;;;16.80;42.65
70015;BME280;57358;51.094;6.760;2023-04-09T12:47:43;101323.94;;;17.13;42.41
70015;BME280;57358;51.094;6.760;2023-04-09T12:50:11;101198.59;;;16.72;41.72
70015;BME280;57358;51.094;6.760;2023-04-09T12:52:38;101189.09;;;16.70;41.32
70015;BME280;57358;51.094;6.760;2023-04-09T12:55:05;101369.13;;;17.37;42.72
70015;BME280;57358;51.094;6.760;2023-04-09T12:57:31;101358.22;;;18.16;40.63
70015;BME280;57358;51.094;6.760;2023-04-09T12:59:58;101311.81;;;18.32;39.81
70015;BME280;57358;51.094;6.760;2023-04-09T13:02:25;101193.22;;;17.24;39.78
70015;BME280;57358;51.094;6.760;2023-04-09T13:04:52;101272.59;;;17.27;41.50